Time,TemperatureF,DewpointF,PressureIn,WindDirection,WindDirectionDegrees,WindSpeedMPH,WindSpeedGustMPH,Humidity,HourlyPrecipIn,Conditions,Clouds,dailyrainin,SoftwareType,DateUTC
2013-03-10 00:08:00,21.9,21.4,30.31,WNW,292,0.0,-999.0,98,-99.99,,,0.00,Acu-Link.com,2013-03-10 05:08:00,
2013-03-10 00:23:00,21.0,20.5,30.30,North,0,0.0,-999.0,98,-99.99,,,0.00,Acu-Link.com,2013-03-10 05:23:00,
2013-03-10 00:38:00,20.7,20.2,30.31,NNE,22,0.0,-999.0,98,-99.99,,,0.00,Acu-Link.com,2013-03-10 05:38:00,
2013-03-10 00:53:00,19.9,19.4,30.31,NNE,22,0.0,-999.0,98,-99.99,,,0.00,Acu-Link.com,2013-03-10 05:53:00,
2013-03-10 01:08:00,19.8,19.3,30.31,NW,315,0.0,-999.0,98,-99.99,,,0.00,Acu-Link.com,2013-03-10 06:08:00,
2013-03-10 01:23:00,19.4,18.9,30.31,NNW,337,0.0,-999.0,98,-99.99,,,0.00,Acu-Link.com,2013-03-10 06:23:00,
2013-03-10 01:39:00,19.4,18.9,30.32,NNW,337,0.0,-999.0,98,-99.99,,,0.00,Acu-Link.com,2013-03-10 06:39:00,
2013-03-10 01:54:00,18.9,18.4,30.31,NNE,22,0.0,-999.0,98,-99.99,,,0.00,Acu-Link.com,2013-03-10 06:54:00,
2013-03-10 03:09:00,18.9,18.4,30.31,ENE,67,0.0,-999.0,98,-99.99,,,0.00,Acu-Link.com,2013-03-10 07:09:00,
2013-03-10 03:24:00,18.1,17.6,30.31,NNE,22,0.0,-999.0,98,-99.99,,,0.00,Acu-Link.com,2013-03-10 07:24:00,
2013-03-10 03:39:00,17.8,17.3,30.31,NE,45,0.0,-999.0,98,-99.99,,,0.00,Acu-Link.com,2013-03-10 07:39:00,
2013-03-10 03:54:00,17.6,17.1,30.31,NNE,22,0.0,-999.0,98,-99.99,,,0.00,Acu-Link.com,2013-03-10 07:54:00,
2013-03-10 04:09:00,17.2,16.7,30.30,NE,45,0.0,-999.0,98,-99.99,,,0.00,Acu-Link.com,2013-03-10 08:09:00,
2013-03-10 04:24:00,17.1,16.6,30.31,NNW,337,0.0,-999.0,98,-99.99,,,0.00,Acu-Link.com,2013-03-10 08:24:00,
2013-03-10 04:39:00,16.7,16.2,30.31,NNW,337,0.0,-999.0,98,-99.99,,,0.00,Acu-Link.com,2013-03-10 08:39:00,
2013-03-10 04:55:00,16.5,16.0,30.32,North,0,0.0,-999.0,98,-99.99,,,0.00,Acu-Link.com,2013-03-10 08:55:00,
2013-03-10 05:10:00,16.2,15.7,30.32,NW,315,0.0,-999.0,98,-99.99,,,0.00,Acu-Link.com,2013-03-10 09:10:00,
2013-03-10 05:25:00,15.8,15.3,30.33,NE,45,0.0,-999.0,98,-99.99,,,0.00,Acu-Link.com,2013-03-10 09:25:00,
2013-03-10 05:40:00,15.8,15.3,30.32,NNW,337,0.0,-999.0,98,-99.99,,,0.00,Acu-Link.com,2013-03-10 09:40:00,
2013-03-10 05:55:00,15.8,15.3,30.32,NNW,337,0.0,-999.0,98,-99.99,,,0.00,Acu-Link.com,2013-03-10 09:55:00,
2013-03-10 06:10:00,15.3,13.9,30.32,South,180,0.0,-999.0,94,-99.99,,,0.00,Acu-Link.com,2013-03-10 10:10:00,
2013-03-10 06:25:00,15.3,14.8,30.33,NNW,337,0.0,-999.0,98,-99.99,,,0.00,Acu-Link.com,2013-03-10 10:25:00,
2013-03-10 06:40:00,15.3,14.8,30.33,NNW,337,0.0,-999.0,98,-99.99,,,0.00,Acu-Link.com,2013-03-10 10:40:00,
2013-03-10 06:55:00,15.6,15.1,30.33,NNW,337,0.0,-999.0,98,-99.99,,,0.00,Acu-Link.com,2013-03-10 10:55:00,
2013-03-10 07:10:00,16.0,15.5,30.34,ENE,67,0.0,-999.0,98,-99.99,,,0.00,Acu-Link.com,2013-03-10 11:10:00,
2013-03-10 07:26:00,15.8,15.3,30.35,NW,315,0.0,-999.0,98,-99.99,,,0.00,Acu-Link.com,2013-03-10 11:26:00,
2013-03-10 07:41:00,16.2,15.7,30.36,ENE,67,0.0,-999.0,98,-99.99,,,0.00,Acu-Link.com,2013-03-10 11:41:00,
2013-03-10 07:56:00,17.1,16.6,30.35,North,0,0.0,-999.0,98,-99.99,,,0.00,Acu-Link.com,2013-03-10 11:56:00,
2013-03-10 08:11:00,21.0,20.5,30.36,NE,45,0.0,-999.0,98,-99.99,,,0.00,Acu-Link.com,2013-03-10 12:11:00,
2013-03-10 08:26:00,27.0,26.5,30.36,NE,45,0.0,-999.0,98,-99.99,,,0.00,Acu-Link.com,2013-03-10 12:26:00,
2013-03-10 08:41:00,32.7,30.6,30.36,NE,45,0.0,-999.0,92,-99.99,,,0.00,Acu-Link.com,2013-03-10 12:41:00,
2013-03-10 08:56:00,35.8,30.6,30.36,South,180,0.0,-999.0,81,-99.99,,,0.00,Acu-Link.com,2013-03-10 12:56:00,
2013-03-10 09:11:00,40.8,35.1,30.36,ENE,67,0.0,-999.0,80,-99.99,,,0.00,Acu-Link.com,2013-03-10 13:11:00,
2013-03-10 09:26:00,43.5,32.9,30.36,NW,315,0.0,-999.0,66,-99.99,,,0.00,Acu-Link.com,2013-03-10 13:26:00,
2013-03-10 09:42:00,44.4,33.8,30.36,NW,315,2.2,-999.0,66,-99.99,,,0.00,Acu-Link.com,2013-03-10 13:42:00,
2013-03-10 09:57:00,45.9,34.8,30.35,NNE,22,1.7,-999.0,65,-99.99,,,0.00,Acu-Link.com,2013-03-10 13:57:00,
2013-03-10 10:12:00,44.2,33.9,30.35,NNE,22,3.2,-999.0,67,-99.99,,,0.00,Acu-Link.com,2013-03-10 14:12:00,
2013-03-10 10:27:00,43.7,33.5,30.36,ENE,67,4.2,-999.0,67,-99.99,,,0.00,Acu-Link.com,2013-03-10 14:27:00,
2013-03-10 10:42:00,45.3,34.2,30.35,NE,45,4.2,-999.0,65,-99.99,,,0.00,Acu-Link.com,2013-03-10 14:42:00,
2013-03-10 10:57:00,47.1,33.9,30.34,NNE,22,6.3,-999.0,60,-99.99,,,0.00,Acu-Link.com,2013-03-10 14:57:00,
2013-03-10 11:12:00,48.7,33.7,30.34,NNW,337,2.2,-999.0,56,-99.99,,,0.00,Acu-Link.com,2013-03-10 15:12:00,
2013-03-10 11:27:00,49.1,34.1,30.34,ESE,112,2.7,-999.0,56,-99.99,,,0.00,Acu-Link.com,2013-03-10 15:27:00,
2013-03-10 11:42:00,47.1,33.1,30.34,West,270,2.7,-999.0,58,-99.99,,,0.01,Acu-Link.com,2013-03-10 15:42:00,
2013-03-10 11:58:00,51.1,34.6,30.33,NNE,22,2.2,-999.0,53,-99.99,,,0.01,Acu-Link.com,2013-03-10 15:58:00,
2013-03-10 12:13:00,48.7,32.8,30.33,NE,45,5.8,-999.0,54,-99.99,,,0.01,Acu-Link.com,2013-03-10 16:13:00,
2013-03-10 12:28:00,49.6,32.7,30.33,East,90,3.7,-999.0,52,-99.99,,,0.01,Acu-Link.com,2013-03-10 16:28:00,
2013-03-10 12:43:00,48.6,33.2,30.32,NE,45,6.3,-999.0,55,-99.99,,,0.01,Acu-Link.com,2013-03-10 16:43:00,
2013-03-10 12:58:00,50.5,34.0,30.32,NNE,22,1.1,-999.0,53,-99.99,,,0.01,Acu-Link.com,2013-03-10 16:58:00,
2013-03-10 13:13:00,51.1,34.6,30.32,SW,225,0.0,-999.0,53,-99.99,,,0.01,Acu-Link.com,2013-03-10 17:13:00,
2013-03-10 13:28:00,51.8,34.3,30.31,NNE,22,2.7,-999.0,51,-99.99,,,0.01,Acu-Link.com,2013-03-10 17:28:00,
2013-03-10 13:43:00,53.6,34.4,30.30,SW,225,2.2,-999.0,48,-99.99,,,0.01,Acu-Link.com,2013-03-10 17:43:00,
2013-03-10 13:58:00,52.3,33.7,30.30,NW,315,3.2,-999.0,49,-99.99,,,0.01,Acu-Link.com,2013-03-10 17:58:00,
2013-03-10 14:14:00,52.5,33.4,30.29,NE,45,1.7,-999.0,48,-99.99,,,0.01,Acu-Link.com,2013-03-10 18:14:00,
2013-03-10 14:29:00,51.8,33.3,30.29,NE,45,4.2,-999.0,49,-99.99,,,0.01,Acu-Link.com,2013-03-10 18:29:00,
2013-03-10 14:44:00,50.9,32.4,30.28,SSW,202,3.2,-999.0,49,-99.99,,,0.01,Acu-Link.com,2013-03-10 18:44:00,
2013-03-10 14:59:00,50.9,32.9,30.28,WNW,292,3.2,-999.0,50,-99.99,,,0.01,Acu-Link.com,2013-03-10 18:59:00,
2013-03-10 15:14:00,52.5,33.4,30.28,SSE,157,2.2,-999.0,48,-99.99,,,0.01,Acu-Link.com,2013-03-10 19:14:00,
2013-03-10 15:29:00,50.7,32.7,30.27,SSW,202,3.2,-999.0,50,-99.99,,,0.01,Acu-Link.com,2013-03-10 19:29:00,
2013-03-10 15:44:00,50.5,32.6,30.27,South,180,2.7,-999.0,50,-99.99,,,0.01,Acu-Link.com,2013-03-10 19:44:00,
2013-03-10 15:59:00,50.7,31.2,30.28,SE,135,3.2,-999.0,47,-99.99,,,0.01,Acu-Link.com,2013-03-10 19:59:00,
2013-03-10 16:14:00,49.6,31.2,30.27,WNW,292,0.0,-999.0,49,-99.99,,,0.01,Acu-Link.com,2013-03-10 20:14:00,
2013-03-10 16:30:00,50.2,31.3,30.27,NNE,22,1.1,-999.0,48,-99.99,,,0.01,Acu-Link.com,2013-03-10 20:30:00,
2013-03-10 16:45:00,50.7,31.7,30.26,SSW,202,1.1,-999.0,48,-99.99,,,0.01,Acu-Link.com,2013-03-10 20:45:00,
2013-03-10 17:00:00,49.8,31.9,30.26,NE,45,0.0,-999.0,50,-99.99,,,0.01,Acu-Link.com,2013-03-10 21:00:00,
2013-03-10 17:15:00,50.2,31.8,30.26,NNW,337,2.2,-999.0,49,-99.99,,,0.01,Acu-Link.com,2013-03-10 21:15:00,
2013-03-10 17:30:00,48.9,31.6,30.26,West,270,2.2,-999.0,51,-99.99,,,0.01,Acu-Link.com,2013-03-10 21:30:00,
2013-03-10 17:45:00,48.4,31.6,30.25,WSW,247,0.0,-999.0,52,-99.99,,,0.01,Acu-Link.com,2013-03-10 21:45:00,
2013-03-10 18:00:00,47.3,31.5,30.25,SE,135,0.0,-999.0,54,-99.99,,,0.01,Acu-Link.com,2013-03-10 22:00:00,
2013-03-10 18:15:00,46.0,31.2,30.26,West,270,0.0,-999.0,56,-99.99,,,0.01,Acu-Link.com,2013-03-10 22:15:00,
2013-03-10 18:30:00,44.4,31.4,30.25,ESE,112,0.0,-999.0,60,-99.99,,,0.01,Acu-Link.com,2013-03-10 22:30:00,
2013-03-10 18:46:00,42.3,32.5,30.26,East,90,0.0,-999.0,68,-99.99,,,0.01,Acu-Link.com,2013-03-10 22:46:00,
2013-03-10 19:01:00,40.1,32.5,30.26,South,180,0.0,-999.0,74,-99.99,,,0.01,Acu-Link.com,2013-03-10 23:01:00,
2013-03-10 19:46:00,40.6,34.6,30.28,SE,135,0.0,-999.0,79,-99.99,,,0.01,Acu-Link.com,2013-03-10 23:46:00,
2013-03-10 20:01:00,41.0,35.3,30.27,WSW,247,1.1,-999.0,80,-99.99,,,0.01,Acu-Link.com,2013-03-11 00:01:00,
2013-03-10 20:16:00,40.6,34.9,30.28,SSW,202,2.7,-999.0,80,-99.99,,,0.01,Acu-Link.com,2013-03-11 00:16:00,
2013-03-10 20:46:00,39.4,34.4,30.29,South,180,2.7,-999.0,82,-99.99,,,0.01,Acu-Link.com,2013-03-11 00:46:00,
2013-03-10 21:02:00,39.2,34.5,30.28,South,180,4.2,-999.0,83,-99.99,,,0.01,Acu-Link.com,2013-03-11 01:02:00,
2013-03-10 21:17:00,38.3,33.9,30.27,South,180,0.0,-999.0,84,-99.99,,,0.01,Acu-Link.com,2013-03-11 01:17:00,
2013-03-10 21:32:00,37.8,33.7,30.28,South,180,2.7,-999.0,85,-99.99,,,0.01,Acu-Link.com,2013-03-11 01:32:00,
2013-03-10 21:47:00,37.4,33.6,30.28,South,180,2.7,-999.0,86,-99.99,,,0.01,Acu-Link.com,2013-03-11 01:47:00,
2013-03-10 22:02:00,36.9,33.1,30.28,SSW,202,0.0,-999.0,86,-99.99,,,0.01,Acu-Link.com,2013-03-11 02:02:00,
2013-03-10 22:17:00,36.7,33.2,30.28,South,180,2.2,-999.0,87,-99.99,,,0.01,Acu-Link.com,2013-03-11 02:17:00,
2013-03-10 22:32:00,36.3,32.8,30.28,South,180,2.2,-999.0,87,-99.99,,,0.01,Acu-Link.com,2013-03-11 02:32:00,
2013-03-10 22:47:00,36.1,32.9,30.28,SSW,202,1.7,-999.0,88,-99.99,,,0.01,Acu-Link.com,2013-03-11 02:47:00,
2013-03-10 23:02:00,35.6,32.7,30.28,SSE,157,2.2,-999.0,89,-99.99,,,0.01,Acu-Link.com,2013-03-11 03:02:00,
2013-03-10 23:18:00,35.2,32.3,30.28,SSW,202,1.7,-999.0,89,-99.99,,,0.01,Acu-Link.com,2013-03-11 03:18:00,
2013-03-10 23:33:00,34.7,32.1,30.27,SSE,157,1.7,-999.0,90,-99.99,,,0.01,Acu-Link.com,2013-03-11 03:33:00,
2013-03-10 23:48:00,34.5,32.1,30.27,South,180,1.1,-999.0,91,-99.99,,,0.01,Acu-Link.com,2013-03-11 03:48:00,